Time;durP1;ratioP1;P1;durP2;ratioP2;P2;SDS_P1;SDS_P2;PMS_P1;PMS_P2;Temp;Humidity;BMP_temperature;BMP_pressure;BME280_temperature;BME280_humidity;BME280_pressure;Samples;Min_cycle;Max_cycle;Signal;HPM_P1;HPM_P2
2023/07/04 00:02:25;;;;;;;2.50;2.30;;;21.30;80.80;;;;;;10498039;28;20202;-79
2023/07/04 00:07:28;;;;;;;3.10;2.80;;;21.20;81.20;;;;;;10502846;28;20213;-82
2023/07/04 00:12:32;;;;;;;3.10;2.90;;;21.20;81.60;;;;;;10510919;28;20682;-81
2023/07/04 00:17:35;;;;;;;3.20;3.00;;;21.10;81.20;;;;;;10522524;28;20215;-81
2023/07/04 00:22:39;;;;;;;2.30;2.20;;;21.00;81.90;;;;;;10530879;28;20231;-82
2023/07/04 00:27:42;;;;;;;3.07;2.87;;;20.90;82.30;;;;;;10498002;28;20200;-79
2023/07/04 00:32:45;;;;;;;3.40;2.63;;;20.90;82.90;;;;;;10489932;28;20316;-82
2023/07/04 00:37:47;;;;;;;3.20;2.97;;;20.80;83.40;;;;;;10505466;28;20680;-81
2023/07/04 00:42:52;;;;;;;2.67;2.47;;;20.90;84.10;;;;;;10503851;28;20233;-83
2023/07/04 00:48:00;;;;;;;2.90;2.70;;;20.90;84.00;;;;;;10502775;28;20200;-82
2023/07/04 00:53:05;;;;;;;3.40;3.10;;;20.90;84.80;;;;;;10502823;28;20258;-82
2023/07/04 00:58:09;;;;;;;3.00;2.80;;;20.90;85.60;;;;;;10534445;28;20608;-80
2023/07/04 01:03:18;;;;;;;3.20;2.90;;;21.00;85.10;;;;;;10496981;28;20281;-83
2023/07/04 01:08:25;;;;;;;3.00;2.80;;;21.00;85.40;;;;;;10485337;28;20768;-82
2023/07/04 01:13:35;;;;;;;3.00;2.80;;;21.00;85.50;;;;;;10518331;28;20268;-82
2023/07/04 01:18:40;;;;;;;3.10;2.90;;;21.00;85.30;;;;;;10501328;28;20242;-80
2023/07/04 01:23:57;;;;;;;3.03;2.77;;;21.00;85.30;;;;;;10507701;28;20231;-82
2023/07/04 01:29:04;;;;;;;2.63;2.53;;;21.00;85.50;;;;;;10532081;28;20279;-80
2023/07/04 01:34:06;;;;;;;3.17;2.87;;;21.00;85.20;;;;;;10478626;28;20232;-82
2023/07/04 01:39:10;;;;;;;3.00;2.80;;;21.10;85.30;;;;;;10493546;28;20265;-80
2023/07/04 01:44:16;;;;;;;3.23;3.03;;;21.10;85.60;;;;;;10508478;28;20233;-81
2023/07/04 01:49:19;;;;;;;3.80;3.50;;;21.00;86.00;;;;;;10488595;28;20197;-81
2023/07/04 01:54:21;;;;;;;3.17;2.97;;;21.10;86.10;;;;;;10513809;28;20224;-82
2023/07/04 01:59:25;;;;;;;3.60;3.30;;;21.00;86.60;;;;;;10515602;28;20209;-82
2023/07/04 02:04:27;;;;;;;3.00;2.73;;;21.10;87.70;;;;;;10524313;28;20220;-81
2023/07/04 02:09:30;;;;;;;3.07;2.87;;;21.10;87.50;;;;;;10512272;28;20200;-81
2023/07/04 02:14:33;;;;;;;3.00;2.80;;;21.10;87.90;;;;;;10508431;28;20212;-82
2023/07/04 02:19:35;;;;;;;4.97;3.50;;;21.10;87.60;;;;;;10507920;28;20232;-80
2023/07/04 02:24:37;;;;;;;3.00;2.77;;;21.10;87.80;;;;;;10512185;28;20220;-80
2023/07/04 02:29:41;;;;;;;3.50;3.30;;;21.00;87.80;;;;;;10525647;28;20224;-82
2023/07/04 02:34:43;;;;;;;3.47;3.23;;;21.00;88.50;;;;;;10530420;28;20216;-82
2023/07/04 02:39:49;;;;;;;3.50;3.30;;;21.00;88.50;;;;;;10506646;28;20589;-82
2023/07/04 02:44:53;;;;;;;4.03;3.70;;;21.00;88.60;;;;;;10509910;28;20255;-83
2023/07/04 02:49:56;;;;;;;3.47;3.20;;;21.00;88.10;;;;;;10505225;28;20203;-81
2023/07/04 02:54:59;;;;;;;3.10;2.90;;;20.90;88.00;;;;;;10491809;28;20277;-82
2023/07/04 03:00:03;;;;;;;3.10;2.90;;;20.80;88.20;;;;;;10503471;28;20202;-84
2023/07/04 03:05:10;;;;;;;4.20;3.70;;;20.70;88.40;;;;;;10483098;28;20621;-80
2023/07/04 03:10:14;;;;;;;2.60;2.50;;;20.70;88.10;;;;;;10480348;28;20249;-83
2023/07/04 03:15:17;;;;;;;3.43;2.80;;;20.70;88.50;;;;;;10525351;28;20209;-83
2023/07/04 03:20:24;;;;;;;4.10;3.47;;;20.70;88.70;;;;;;10510441;28;20702;-83
2023/07/04 03:25:29;;;;;;;3.63;3.37;;;20.70;88.70;;;;;;10489942;28;20232;-81
2023/07/04 03:30:35;;;;;;;2.97;2.87;;;20.70;89.50;;;;;;10507166;28;20707;-83
2023/07/04 03:35:44;;;;;;;3.43;3.23;;;20.70;89.20;;;;;;10479475;28;20312;-79
2023/07/04 03:40:46;;;;;;;2.93;2.73;;;20.70;88.50;;;;;;10494978;28;20671;-82
2023/07/04 03:45:50;;;;;;;3.10;2.90;;;20.70;88.70;;;;;;10529188;28;20247;-82
2023/07/04 03:50:52;;;;;;;3.70;3.10;;;20.70;89.30;;;;;;10528278;28;20676;-79
2023/07/04 03:55:54;;;;;;;3.10;2.90;;;20.70;89.30;;;;;;10525642;28;20220;-82
2023/07/04 04:00:57;;;;;;;2.63;2.53;;;20.70;89.20;;;;;;10506754;28;20211;-82
2023/07/04 04:05:59;;;;;;;2.33;2.23;;;20.70;89.40;;;;;;10475079;28;20284;-82
2023/07/04 04:11:02;;;;;;;3.20;3.00;;;20.70;89.90;;;;;;10468832;28;20627;-78
2023/07/04 04:16:06;;;;;;;1.93;1.83;;;20.70;90.00;;;;;;10483139;28;20297;-80
2023/07/04 04:21:09;;;;;;;2.30;2.20;;;20.80;89.80;;;;;;10464394;28;20212;-81
2023/07/04 04:26:13;;;;;;;2.57;2.47;;;20.90;89.60;;;;;;10475470;28;20314;-79
2023/07/04 04:31:17;;;;;;;2.87;2.63;;;20.90;89.80;;;;;;10481019;28;20198;-82
2023/07/04 04:36:20;;;;;;;2.40;2.20;;;20.90;89.10;;;;;;10462224;28;20290;-81
2023/07/04 04:41:22;;;;;;;3.00;2.70;;;21.00;88.70;;;;;;10464944;28;20699;-81
2023/07/04 04:46:26;;;;;;;2.30;2.10;;;21.00;89.20;;;;;;10473980;28;20738;-81
2023/07/04 04:51:28;;;;;;;2.50;2.30;;;21.10;88.80;;;;;;10480741;28;20217;-81
2023/07/04 04:56:33;;;;;;;2.70;2.50;;;21.20;89.00;;;;;;10465394;28;20209;-78
2023/07/04 05:01:37;;;;;;;2.63;2.43;;;21.30;87.90;;;;;;10482509;28;20233;-81
2023/07/04 05:06:41;;;;;;;5.53;2.67;;;21.30;88.90;;;;;;10495104;28;20221;-79
2023/07/04 05:11:44;;;;;;;2.30;2.20;;;21.30;89.10;;;;;;10493941;28;20209;-81
2023/07/04 05:16:47;;;;;;;3.10;2.67;;;21.40;88.10;;;;;;10494769;28;20220;-81
2023/07/04 05:21:49;;;;;;;2.83;2.60;;;21.60;87.80;;;;;;10497549;28;20201;-79
2023/07/04 05:26:51;;;;;;;3.40;3.13;;;21.70;87.10;;;;;;10475916;28;20315;-80
2023/07/04 05:31:55;;;;;;;4.97;3.10;;;21.80;86.50;;;;;;10500948;28;20256;-81
2023/07/04 05:36:57;;;;;;;3.17;2.87;;;21.90;86.70;;;;;;10500109;28;20221;-81
2023/07/04 05:41:59;;;;;;;3.30;2.60;;;22.00;85.40;;;;;;10503302;28;20202;-78
2023/07/04 05:47:02;;;;;;;2.80;2.47;;;22.10;85.60;;;;;;10511457;28;20235;-80
2023/07/04 05:52:05;;;;;;;2.70;2.50;;;22.30;84.60;;;;;;10479910;28;20216;-81
2023/07/04 05:57:09;;;;;;;4.90;2.23;;;22.30;85.00;;;;;;10491620;28;20696;-80
2023/07/04 06:02:12;;;;;;;2.90;2.70;;;22.40;84.60;;;;;;10498622;28;20653;-82
2023/07/04 06:07:14;;;;;;;3.83;2.90;;;22.50;85.10;;;;;;10479096;28;20225;-82
2023/07/04 06:12:16;;;;;;;3.63;2.87;;;22.70;83.00;;;;;;10484433;28;20222;-81
2023/07/04 06:17:20;;;;;;;3.27;3.00;;;22.80;82.10;;;;;;10462422;28;20209;-79
2023/07/04 06:22:22;;;;;;;5.30;2.70;;;22.90;81.80;;;;;;10483976;28;20580;-81
2023/07/04 06:27:25;;;;;;;4.30;2.70;;;23.00;81.10;;;;;;10476331;28;20775;-82
2023/07/04 06:32:29;;;;;;;5.20;3.03;;;23.00;79.60;;;;;;10483232;28;20201;-80
2023/07/04 06:37:31;;;;;;;4.03;3.20;;;23.20;80.60;;;;;;10484193;28;20197;-81
2023/07/04 06:42:34;;;;;;;2.80;2.50;;;23.40;78.70;;;;;;10490939;28;20204;-82
2023/07/04 06:47:38;;;;;;;2.80;2.60;;;23.50;79.00;;;;;;10457381;28;20213;-80
2023/07/04 06:52:40;;;;;;;3.83;2.77;;;23.60;78.40;;;;;;10494748;28;20244;-82
2023/07/04 06:57:43;;;;;;;3.30;2.73;;;23.70;77.30;;;;;;10468422;28;20186;-82
2023/07/04 07:02:51;;;;;;;3.03;2.60;;;23.80;77.30;;;;;;10486213;28;20221;-83
2023/07/04 07:07:53;;;;;;;3.10;2.80;;;24.00;77.00;;;;;;10521970;28;20221;-81
2023/07/04 07:12:55;;;;;;;3.93;3.23;;;24.40;76.60;;;;;;10525993;28;20232;-81
2023/07/04 07:17:59;;;;;;;3.60;3.23;;;24.70;74.90;;;;;;10514634;28;20252;-81
2023/07/04 07:23:02;;;;;;;4.67;3.33;;;24.80;72.50;;;;;;10527821;28;20229;-81
2023/07/04 07:28:04;;;;;;;3.73;2.43;;;24.80;71.60;;;;;;10523789;28;20242;-80
2023/07/04 07:33:08;;;;;;;3.77;2.90;;;24.70;72.00;;;;;;10534220;28;20546;-83
2023/07/04 07:38:10;;;;;;;7.03;3.10;;;24.60;71.90;;;;;;10515759;28;20260;-83
2023/07/04 07:43:12;;;;;;;3.97;2.63;;;24.60;73.40;;;;;;10530063;28;20243;-79
2023/07/04 07:48:17;;;;;;;6.20;3.20;;;24.60;72.30;;;;;;10530433;28;20765;-82
2023/07/04 07:53:19;;;;;;;5.00;3.43;;;24.70;73.70;;;;;;10508145;28;20225;-83
2023/07/04 07:58:21;;;;;;;3.87;3.50;;;24.80;72.20;;;;;;10529610;28;20197;-82
2023/07/04 08:03:24;;;;;;;4.53;3.93;;;25.10;71.70;;;;;;10505820;28;20239;-82
2023/07/04 08:08:26;;;;;;;6.43;3.43;;;25.40;71.40;;;;;;10505975;28;20228;-82
2023/07/04 08:13:28;;;;;;;4.20;3.40;;;25.50;70.90;;;;;;10508722;28;20224;-82
2023/07/04 08:18:32;;;;;;;3.83;3.20;;;25.80;68.90;;;;;;10521872;28;20191;-82
2023/07/04 08:23:34;;;;;;;4.13;3.00;;;25.90;68.90;;;;;;10507986;28;20247;-83
2023/07/04 08:28:36;;;;;;;4.90;3.70;;;26.10;69.40;;;;;;10524439;28;20212;-83
2023/07/04 08:33:40;;;;;;;6.10;3.40;;;26.40;69.40;;;;;;10525682;28;20224;-83
2023/07/04 08:38:42;;;;;;;4.50;3.40;;;26.90;67.50;;;;;;10523765;28;20193;-83
2023/07/04 08:43:50;;;;;;;4.10;3.60;;;27.20;63.60;;;;;;10529539;28;20276;-83
2023/07/04 08:48:54;;;;;;;7.40;4.17;;;27.20;64.70;;;;;;10525183;28;20225;-82
2023/07/04 08:54:01;;;;;;;4.73;3.67;;;27.50;62.80;;;;;;10524215;28;20248;-83
2023/07/04 08:59:11;;;;;;;3.83;3.47;;;27.80;63.60;;;;;;10520000;28;20201;-82
2023/07/04 09:04:19;;;;;;;5.10;4.30;;;28.30;61.60;;;;;;10530913;28;20657;-82
2023/07/04 09:09:30;;;;;;;6.93;4.50;;;28.60;61.40;;;;;;10527549;28;20189;-82
2023/07/04 09:14:38;;;;;;;5.67;4.40;;;28.70;59.40;;;;;;10515790;28;20669;-83
2023/07/04 09:19:46;;;;;;;7.90;3.63;;;28.80;59.00;;;;;;10513525;28;20302;-83
2023/07/04 09:24:49;;;;;;;4.43;3.90;;;28.90;60.30;;;;;;10506451;28;20216;-83
2023/07/04 09:29:52;;;;;;;8.27;4.60;;;29.00;59.80;;;;;;10528852;28;20288;-82
2023/07/04 09:35:02;;;;;;;7.00;6.30;;;28.90;59.20;;;;;;10514052;28;20213;-82
2023/07/04 09:40:05;;;;;;;6.73;5.87;;;29.00;58.70;;;;;;10525678;28;20197;-84
2023/07/04 09:45:11;;;;;;;6.83;4.97;;;29.20;56.70;;;;;;10520098;28;20637;-82
2023/07/04 09:50:17;;;;;;;6.53;5.00;;;29.60;55.00;;;;;;10520228;28;20207;-84
2023/07/04 09:55:27;;;;;;;5.53;5.03;;;29.90;55.30;;;;;;10523707;28;20284;-83
2023/07/04 10:00:29;;;;;;;4.80;4.40;;;29.90;56.10;;;;;;10510532;28;20205;-82
2023/07/04 10:05:35;;;;;;;5.73;4.77;;;29.70;56.50;;;;;;10507144;28;20224;-82
2023/07/04 10:10:40;;;;;;;5.40;4.90;;;29.60;56.70;;;;;;10528032;28;20588;-83
2023/07/04 10:15:45;;;;;;;6.20;5.03;;;29.20;55.90;;;;;;10510134;28;20224;-83
2023/07/04 10:20:53;;;;;;;4.73;4.33;;;28.60;56.30;;;;;;10523597;28;20204;-83
2023/07/04 10:25:58;;;;;;;5.70;4.70;;;30.00;57.70;;;;;;10521882;28;20255;-83
2023/07/04 10:31:06;;;;;;;6.70;5.30;;;31.60;54.20;;;;;;10529741;28;20236;-82
2023/07/04 10:36:13;;;;;;;6.23;5.63;;;31.30;53.30;;;;;;10520394;28;20654;-84
2023/07/04 10:41:22;;;;;;;5.93;5.23;;;30.70;54.20;;;;;;10508084;28;20193;-83
2023/07/04 10:46:26;;;;;;;5.20;4.70;;;30.10;53.70;;;;;;10497237;28;20245;-84
2023/07/04 10:51:34;;;;;;;5.80;5.30;;;29.40;53.70;;;;;;10527952;28;20238;-83
2023/07/04 10:56:37;;;;;;;6.97;5.23;;;28.70;55.00;;;;;;10513169;28;20241;-82
2023/07/04 11:01:42;;;;;;;6.87;5.33;;;28.10;56.70;;;;;;10502714;28;20232;-83
2023/07/04 11:06:54;;;;;;;5.57;5.00;;;27.70;57.20;;;;;;10506889;22;20237;-78
2023/07/04 11:12:05;;;;;;;5.43;4.80;;;27.30;57.60;;;;;;10485719;28;20255;-78
2023/07/04 11:17:12;;;;;;;5.27;4.87;;;27.00;58.50;;;;;;10481211;28;20221;-78
2023/07/04 11:22:16;;;;;;;7.80;5.30;;;26.70;58.70;;;;;;10469187;28;20202;-77
2023/07/04 11:27:20;;;;;;;6.07;4.80;;;26.60;58.40;;;;;;10506817;28;20217;-77
2023/07/04 11:32:32;;;;;;;4.17;3.77;;;26.70;58.70;;;;;;10483766;28;20607;-78
2023/07/04 11:37:41;;;;;;;7.10;4.40;;;26.80;58.70;;;;;;10475967;28;20214;-78
2023/07/04 11:42:47;;;;;;;5.90;4.70;;;26.90;58.10;;;;;;10476686;28;20197;-77
2023/07/04 11:47:53;;;;;;;3.83;3.47;;;27.00;56.90;;;;;;10481960;28;20225;-78
2023/07/04 11:52:58;;;;;;;4.13;3.73;;;27.10;58.00;;;;;;10478386;28;20205;-78
2023/07/04 11:58:24;;;;;;;3.80;3.50;;;27.20;56.90;;;;;;10479563;28;20284;-78
2023/07/04 12:04:04;;;;;;;8.17;5.20;;;27.20;56.40;;;;;;10484391;28;20205;-77
2023/07/04 12:09:13;;;;;;;6.37;5.00;;;27.30;56.20;;;;;;10482907;28;20237;-78
2023/07/04 12:14:17;;;;;;;5.90;5.00;;;27.30;56.80;;;;;;10484521;28;20217;-78
2023/07/04 12:19:22;;;;;;;4.80;4.40;;;27.30;57.10;;;;;;10483606;28;20653;-77
2023/07/04 12:24:26;;;;;;;6.73;5.30;;;27.30;55.80;;;;;;10475368;28;20214;-78
2023/07/04 12:29:29;;;;;;;5.93;4.83;;;27.20;55.90;;;;;;10471163;28;20256;-79
2023/07/04 12:34:32;;;;;;;4.57;4.20;;;27.20;57.10;;;;;;10473545;28;20731;-80
2023/07/04 12:39:42;;;;;;;5.10;4.63;;;27.20;56.90;;;;;;10477769;28;20236;-78
2023/07/04 12:44:44;;;;;;;6.27;4.87;;;27.20;56.40;;;;;;10477652;28;20221;-79
2023/07/04 12:49:47;;;;;;;5.27;4.77;;;27.10;56.10;;;;;;10466970;28;20214;-78
2023/07/04 12:54:52;;;;;;;4.33;4.00;;;27.00;57.40;;;;;;10470710;28;20221;-79
2023/07/04 13:00:09;;;;;;;5.03;4.53;;;26.70;57.90;;;;;;10466575;28;20197;-78
2023/07/04 13:05:11;;;;;;;7.50;4.30;;;26.60;57.40;;;;;;10484895;28;20673;-78
2023/07/04 13:10:22;;;;;;;7.50;4.40;;;26.60;55.50;;;;;;10517731;28;20196;-78
2023/07/04 13:15:28;;;;;;;8.67;4.90;;;26.60;56.50;;;;;;10510753;28;20225;-79
2023/07/04 13:20:31;;;;;;;6.43;5.83;;;26.60;56.20;;;;;;10515804;28;20655;-79
2023/07/04 13:25:37;;;;;;;8.03;4.67;;;26.60;56.00;;;;;;10515226;28;20642;-79
2023/07/04 13:30:39;;;;;;;3.87;3.57;;;26.70;56.50;;;;;;10493681;28;20205;-78
2023/07/04 13:35:41;;;;;;;5.07;4.10;;;26.60;56.80;;;;;;10518022;28;20279;-77
2023/07/04 13:40:44;;;;;;;5.03;4.43;;;26.50;57.10;;;;;;10518279;28;20202;-79
2023/07/04 13:45:47;;;;;;;5.67;5.07;;;26.30;57.90;;;;;;10522034;28;20229;-79
2023/07/04 13:50:50;;;;;;;4.90;4.50;;;26.20;57.10;;;;;;10517393;28;20687;-79
2023/07/04 13:55:54;;;;;;;5.87;4.93;;;26.20;57.30;;;;;;10515283;28;20226;-79
2023/07/04 14:00:57;;;;;;;6.47;4.40;;;26.20;57.20;;;;;;10519893;28;20197;-78
2023/07/04 14:05:59;;;;;;;4.40;4.00;;;26.20;56.50;;;;;;10501657;28;20285;-79
2023/07/04 14:11:08;;;;;;;4.30;3.60;;;26.20;56.40;;;;;;10495413;28;20640;-79
2023/07/04 14:16:13;;;;;;;4.70;4.30;;;26.30;55.60;;;;;;10499831;28;20275;-78
2023/07/04 14:21:17;;;;;;;3.90;3.50;;;26.40;55.90;;;;;;10500107;28;20231;-78
2023/07/04 14:26:22;;;;;;;4.07;3.77;;;26.40;56.10;;;;;;10520663;28;20280;-79
2023/07/04 14:31:24;;;;;;;4.90;4.00;;;26.40;57.20;;;;;;10500170;28;20208;-78
2023/07/04 14:36:26;;;;;;;3.33;3.03;;;26.40;56.90;;;;;;10514923;28;20620;-79
2023/07/04 14:41:30;;;;;;;4.80;2.90;;;26.40;56.10;;;;;;10516321;28;20201;-79
2023/07/04 14:46:33;;;;;;;4.60;3.20;;;26.30;56.10;;;;;;10501094;28;20287;-79
2023/07/04 14:51:35;;;;;;;3.53;3.23;;;26.30;55.50;;;;;;10515788;28;20212;-78
2023/07/04 14:56:38;;;;;;;3.13;2.93;;;26.20;55.40;;;;;;10493658;28;20663;-79
2023/07/04 15:01:40;;;;;;;2.70;2.50;;;26.00;56.20;;;;;;10525415;28;20193;-79
2023/07/04 15:06:42;;;;;;;5.60;2.83;;;25.90;57.10;;;;;;10503775;28;20244;-79
2023/07/04 15:11:46;;;;;;;3.97;3.40;;;25.90;55.80;;;;;;10525210;28;20197;-79
2023/07/04 15:16:48;;;;;;;4.03;2.90;;;25.90;55.70;;;;;;10512333;28;20227;-79
2023/07/04 15:21:50;;;;;;;3.30;3.00;;;26.00;56.50;;;;;;10525774;28;20287;-79
2023/07/04 15:26:54;;;;;;;6.97;2.47;;;26.00;56.80;;;;;;10516252;28;20227;-79
2023/07/04 15:31:56;;;;;;;4.57;3.20;;;26.10;56.00;;;;;;10523087;28;20216;-79
2023/07/04 15:37:09;;;;;;;3.90;3.50;;;26.10;56.20;;;;;;10523951;28;20219;-77
2023/07/04 15:42:12;;;;;;;4.30;3.40;;;26.00;56.70;;;;;;10488369;28;20193;-78
2023/07/04 15:47:15;;;;;;;4.00;3.40;;;26.00;56.20;;;;;;10519204;28;20319;-79
2023/07/04 15:52:17;;;;;;;3.23;3.03;;;26.00;57.00;;;;;;10529685;28;20208;-79
2023/07/04 15:57:20;;;;;;;3.70;3.40;;;26.00;57.10;;;;;;10523104;28;20216;-78
2023/07/04 16:02:22;;;;;;;3.67;3.37;;;26.00;56.60;;;;;;10497444;28;20250;-78
2023/07/04 16:07:24;;;;;;;3.67;2.80;;;25.90;56.90;;;;;;10516655;28;20239;-77
2023/07/04 16:12:28;;;;;;;4.23;3.50;;;25.80;57.20;;;;;;10507854;28;20606;-77
2023/07/04 16:17:30;;;;;;;3.23;2.93;;;25.70;57.60;;;;;;10495918;28;20248;-78
2023/07/04 16:22:32;;;;;;;3.37;2.67;;;25.70;59.30;;;;;;10490886;28;20224;-77
2023/07/04 16:27:35;;;;;;;3.27;3.00;;;25.70;59.70;;;;;;10500653;28;20243;-78
2023/07/04 16:32:37;;;;;;;3.97;3.67;;;25.70;59.70;;;;;;10517297;28;20196;-78
2023/07/04 16:37:40;;;;;;;5.50;3.77;;;25.70;59.50;;;;;;10478346;28;20213;-79
2023/07/04 16:42:43;;;;;;;4.10;3.80;;;25.70;60.00;;;;;;10495240;28;20197;-78
2023/07/04 16:47:45;;;;;;;4.67;3.63;;;25.70;58.20;;;;;;10489146;28;20252;-78
2023/07/04 16:52:47;;;;;;;4.57;4.17;;;25.60;59.40;;;;;;10509021;28;20317;-79
2023/07/04 16:57:51;;;;;;;4.30;3.90;;;25.70;59.70;;;;;;10514558;28;20738;-78
2023/07/04 17:02:53;;;;;;;3.77;3.47;;;25.80;58.70;;;;;;10488888;28;20197;-78
2023/07/04 17:07:55;;;;;;;4.37;3.97;;;25.80;58.70;;;;;;10461807;22;20229;-81
2023/07/04 17:13:03;;;;;;;6.03;4.50;;;25.90;58.70;;;;;;10449808;28;20209;-83
2023/07/04 17:18:06;;;;;;;4.70;4.30;;;25.80;58.90;;;;;;10430109;28;20748;-83
2023/07/04 17:23:11;;;;;;;8.50;4.70;;;25.80;57.80;;;;;;10417891;28;20199;-83
2023/07/04 17:28:16;;;;;;;4.97;4.30;;;25.70;58.10;;;;;;10432141;28;20218;-84
2023/07/04 17:33:18;;;;;;;4.70;4.20;;;25.60;58.70;;;;;;10415139;28;20579;-83
2023/07/04 17:38:21;;;;;;;5.30;4.47;;;25.60;59.00;;;;;;10431627;28;20260;-82
2023/07/04 17:43:27;;;;;;;6.03;4.23;;;25.50;58.90;;;;;;10415296;28;20361;-84
2023/07/04 17:48:31;;;;;;;4.07;3.77;;;25.50;58.60;;;;;;10415783;28;20726;-85
2023/07/04 17:53:37;;;;;;;5.73;4.40;;;25.30;59.30;;;;;;10427708;28;20248;-85
2023/07/04 17:58:41;;;;;;;4.63;4.23;;;25.20;59.10;;;;;;10445575;28;20245;-85
2023/07/04 18:03:45;;;;;;;7.73;4.80;;;25.00;60.30;;;;;;10432687;28;20662;-84
2023/07/04 18:08:49;;;;;;;12.47;11.27;;;25.00;61.30;;;;;;10436046;28;20217;-84
2023/07/04 18:13:57;;;;;;;6.47;5.80;;;24.90;62.80;;;;;;10430754;28;20349;-85
2023/07/04 18:18:59;;;;;;;4.80;4.10;;;24.80;62.30;;;;;;10430370;28;20577;-86
2023/07/04 18:24:03;;;;;;;4.80;3.97;;;24.80;60.90;;;;;;10410765;28;20199;-84
2023/07/04 18:29:09;;;;;;;5.37;4.10;;;24.70;65.00;;;;;;10429262;28;20284;-82
2023/07/04 18:34:35;;;;;;;4.67;4.27;;;24.60;66.20;;;;;;10448664;28;20220;-82
2023/07/04 18:39:38;;;;;;;5.17;4.77;;;24.50;70.80;;;;;;10434374;28;20201;-83
2023/07/04 18:44:42;;;;;;;5.47;4.13;;;24.40;65.60;;;;;;10446581;28;20226;-84
2023/07/04 18:49:44;;;;;;;4.73;4.27;;;24.30;67.80;;;;;;10450436;28;20222;-83
2023/07/04 18:54:47;;;;;;;4.27;3.87;;;24.20;70.00;;;;;;10430847;28;20337;-84
2023/07/04 18:59:54;;;;;;;4.77;4.30;;;24.10;65.80;;;;;;10417625;28;20584;-84
2023/07/04 19:04:59;;;;;;;4.87;4.47;;;24.00;64.50;;;;;;10420292;28;20237;-83
2023/07/04 19:10:05;;;;;;;4.37;4.07;;;24.00;64.90;;;;;;10410649;28;20638;-83
2023/07/04 19:15:09;;;;;;;4.57;4.00;;;23.90;65.40;;;;;;10447821;28;20229;-82
2023/07/04 19:20:12;;;;;;;5.03;4.50;;;23.80;66.00;;;;;;10418459;28;20625;-84
2023/07/04 19:25:14;;;;;;;11.53;6.80;;;23.60;66.40;;;;;;10448724;28;20253;-84
2023/07/04 19:30:20;;;;;;;4.60;4.20;;;23.60;65.50;;;;;;10423331;28;20305;-82
2023/07/04 19:35:22;;;;;;;5.17;4.43;;;23.40;66.80;;;;;;10449924;28;20317;-83
2023/07/04 19:40:26;;;;;;;5.80;5.00;;;23.40;67.20;;;;;;10425212;28;20310;-83
2023/07/04 19:45:30;;;;;;;4.60;4.20;;;23.30;67.30;;;;;;10417163;28;20217;-82
2023/07/04 19:50:32;;;;;;;4.97;4.47;;;23.20;67.30;;;;;;10432789;28;20233;-85
2023/07/04 19:55:36;;;;;;;5.33;4.67;;;23.10;68.10;;;;;;10447078;28;20223;-86
2023/07/04 20:00:46;;;;;;;4.43;4.10;;;23.10;68.10;;;;;;10431427;28;20611;-83
2023/07/04 20:05:48;;;;;;;5.13;4.63;;;23.00;68.70;;;;;;10399344;28;20227;-84
2023/07/04 20:10:53;;;;;;;4.27;3.87;;;22.90;68.10;;;;;;10424156;28;20590;-85
2023/07/04 20:15:58;;;;;;;4.13;3.73;;;22.80;68.10;;;;;;10419928;28;20222;-83
2023/07/04 20:21:01;;;;;;;3.80;3.50;;;22.80;69.20;;;;;;10437434;28;20203;-82
2023/07/04 20:26:04;;;;;;;5.20;4.80;;;22.80;70.50;;;;;;10406097;28;20321;-83
2023/07/04 20:31:11;;;;;;;4.67;4.27;;;22.80;69.00;;;;;;10425303;28;20522;-83
2023/07/04 20:36:16;;;;;;;4.83;4.30;;;22.80;69.50;;;;;;10412457;28;20264;-83
2023/07/04 20:41:21;;;;;;;4.90;4.00;;;22.80;70.20;;;;;;10427931;28;20197;-83
2023/07/04 20:46:27;;;;;;;4.73;4.33;;;22.80;70.00;;;;;;10429711;28;20226;-83
2023/07/04 20:51:29;;;;;;;5.47;4.43;;;22.80;70.50;;;;;;10420334;28;20225;-82
2023/07/04 20:56:31;;;;;;;6.60;4.90;;;22.80;70.60;;;;;;10418064;28;20250;-82
2023/07/04 21:01:37;;;;;;;4.90;4.23;;;22.70;71.10;;;;;;10436348;28;20198;-81
2023/07/04 21:06:39;;;;;;;6.27;4.20;;;22.70;71.90;;;;;;10429813;28;20292;-83
2023/07/04 21:11:41;;;;;;;4.97;4.43;;;22.60;71.70;;;;;;10451084;28;20825;-83
2023/07/04 21:16:45;;;;;;;5.67;5.17;;;22.50;72.10;;;;;;10427874;28;20226;-83
2023/07/04 21:21:47;;;;;;;5.10;4.70;;;22.50;73.10;;;;;;10408012;28;20201;-85
2023/07/04 21:26:49;;;;;;;4.50;3.90;;;22.40;69.70;;;;;;10431896;28;20227;-82
2023/07/04 21:31:53;;;;;;;4.40;4.00;;;22.40;69.60;;;;;;10436015;28;20607;-82
2023/07/04 21:36:55;;;;;;;4.63;4.17;;;22.30;69.10;;;;;;10420613;28;20222;-83
2023/07/04 21:41:57;;;;;;;6.73;5.50;;;22.20;69.70;;;;;;10434822;28;20202;-84
2023/07/04 21:47:01;;;;;;;5.13;4.57;;;22.00;70.80;;;;;;10430606;28;20281;-84
2023/07/04 21:52:03;;;;;;;4.30;4.00;;;22.00;71.50;;;;;;10429185;28;20209;-84
2023/07/04 21:57:06;;;;;;;4.93;4.50;;;22.00;72.40;;;;;;10442413;28;20221;-82
2023/07/04 22:02:09;;;;;;;4.87;4.47;;;22.00;72.60;;;;;;10428619;28;20206;-82
2023/07/04 22:07:12;;;;;;;4.90;4.50;;;22.00;71.70;;;;;;10426748;28;20226;-83
2023/07/04 22:12:14;;;;;;;5.03;4.63;;;22.00;72.70;;;;;;10446994;28;20212;-82
2023/07/04 22:17:20;;;;;;;5.10;4.63;;;22.00;72.80;;;;;;10426820;28;20271;-83
2023/07/04 22:22:22;;;;;;;5.50;4.93;;;21.90;73.00;;;;;;10449335;28;20252;-84
2023/07/04 22:27:24;;;;;;;4.83;4.33;;;21.90;74.10;;;;;;10446103;28;20215;-84
2023/07/04 22:32:28;;;;;;;4.60;4.20;;;21.90;74.40;;;;;;10416544;28;20195;-82
2023/07/04 22:37:30;;;;;;;4.67;4.27;;;21.80;73.80;;;;;;10425155;28;20245;-83
2023/07/04 22:42:32;;;;;;;4.80;4.30;;;21.70;74.00;;;;;;10435524;28;20202;-84
2023/07/04 22:47:36;;;;;;;4.40;4.00;;;21.70;73.80;;;;;;10434427;28;20857;-84
2023/07/04 22:52:38;;;;;;;7.00;4.93;;;21.60;75.10;;;;;;10398713;28;20204;-84
2023/07/04 22:57:40;;;;;;;5.03;4.57;;;21.60;74.90;;;;;;10434572;28;20250;-83
2023/07/04 23:02:46;;;;;;;5.20;4.70;;;21.50;74.60;;;;;;10429132;28;20272;-84
2023/07/04 23:07:51;;;;;;;6.00;4.30;;;21.50;75.40;;;;;;10507297;22;20645;-78
2023/07/04 23:13:01;;;;;;;5.83;4.90;;;21.40;75.20;;;;;;10537312;28;20204;-78
2023/07/04 23:18:13;;;;;;;5.27;4.60;;;21.40;75.30;;;;;;10527935;28;20303;-77
2023/07/04 23:23:16;;;;;;;4.43;4.00;;;21.40;76.10;;;;;;10539149;28;20687;-78
2023/07/04 23:28:22;;;;;;;4.73;4.33;;;21.30;76.10;;;;;;10552298;28;20303;-77
2023/07/04 23:33:44;;;;;;;4.80;4.40;;;21.30;75.80;;;;;;10546309;28;20202;-78
2023/07/04 23:39:39;;;;;;;;;;;;;;;;;;;;;
2023/07/04 23:45:00;;;;;;;4.63;4.23;;;21.20;77.30;;;;;;10530632;28;20200;-79
2023/07/04 23:50:15;;;;;;;4.10;3.80;;;21.10;77.10;;;;;;10537252;28;20228;-78
2023/07/04 23:55:19;;;;;;;4.27;3.93;;;21.10;77.70;;;;;;10540447;28;20227;-79
